Stacja Pogody
Warszawa Praga-Północ

Szerokość 52°15'43"N Długość 21°01'22"E Wysokość 110m n.p.m.


146 dzień roku.   Do końca pozostalo 219 dni.   Od wczoraj przybyło 2 min. i 28 sek. dnia.
Wschód Słońca 04:26 Górowanie Słońca 12:32 Zachód Słońca 20:39 bliznieta
Data juliańska 2457900.808 Odległość Słońca 151553825 km Średn. kątowa Słońca 0,316°
Wschód Księżyca 05:23 Zachód Księżyca 21:15 Wiek Księżyca 1 dni Moon
Widoczność Księżyca 0,37% Odległość Księżyca 363297 km Średn. kątowa Księżyca 0,329°
Dzień krótszy od najdłuższego o: 00:34 Długość dnia 16:13 Imieniny Filipa, Pauliny



  Aktualizacja: 26-05-2017 07:22:35
TEMPERATURA
Aktualnie: 5.2°C →
Temperatura odczuwalna:1.5°C
Punkt rosy0.9°C
WIATR
Średnia prędkość: 9.7km/h ↑
Prędkość w podmuchach:13.3km/h
Przepływ w ciągu doby:232.8km
Kierunek wiatru:180°
CIŚNIENIE
Względne:1017.7hPa
Bezwzględne:1009.6hPa
Trend ciśnienia:stabilne
WILGOTNOŚĆ
Wilgotność względna: 74% →
Podstawa chmur2133m
DESZCZ
W ostatniej godzinie: 0.0mm
Dzisiaj:0.0mm
W tym miesiącu:34.1mm
METAR
EPWA 260500Z 29006KT 260V320 CAVOK 13/09 Q1017 NOSIG
Ostrzeżenia burzowe
Prognoza 12-to godzinna (prawdopodobieństwo 75%):   Dość dobra pogoda, opady o charakterze przelotnym prognoza





a  a a